Time;durP1;ratioP1;P1;durP2;ratioP2;P2;SDS_P1;SDS_P2;PMS_P1;PMS_P2;Temp;Humidity;BMP_temperature;BMP_pressure;BME280_temperature;BME280_humidity;BME280_pressure;Samples;Min_cycle;Max_cycle;Signal;HPM_P1;HPM_P2
2023/06/30 00:01:29;;;;;;;15.25;8.18;;;;;;;20.55;72.87;99607.19;4992720;28;20081;-78
2023/06/30 00:03:55;;;;;;;15.02;9.00;;;;;;;20.63;72.93;99612.66;4992319;28;20030;-80
2023/06/30 00:06:21;;;;;;;16.60;10.68;;;;;;;20.53;73.51;99605.56;4992143;28;20038;-78
2023/06/30 00:08:48;;;;;;;15.23;9.27;;;;;;;20.60;73.52;99607.81;4992088;28;20045;-78
2023/06/30 00:11:13;;;;;;;13.63;8.90;;;;;;;20.65;72.97;99606.78;4992549;28;20034;-78
2023/06/30 00:13:39;;;;;;;18.67;10.18;;;;;;;20.60;73.37;99599.50;4994551;28;20033;-77
2023/06/30 00:16:04;;;;;;;14.90;8.90;;;;;;;20.57;73.32;99597.41;4992380;28;20030;-79
2023/06/30 00:18:29;;;;;;;12.57;7.77;;;;;;;20.65;72.79;99598.47;4992560;28;20030;-80
2023/06/30 00:20:55;;;;;;;12.15;7.95;;;;;;;20.59;73.20;99600.63;4992429;28;20272;-78
2023/06/30 00:23:21;;;;;;;10.77;5.35;;;;;;;20.69;72.83;99602.19;4990972;28;20038;-76
2023/06/30 00:25:46;;;;;;;8.23;4.13;;;;;;;20.52;73.62;99603.94;4992613;28;20030;-78
2023/06/30 00:28:11;;;;;;;8.05;3.65;;;;;;;20.52;73.03;99608.69;4997457;28;20045;-78
2023/06/30 00:30:37;;;;;;;5.80;3.20;;;;;;;20.39;73.65;99616.09;4996497;28;20435;-76
2023/06/30 00:33:03;;;;;;;4.85;2.70;;;;;;;20.40;73.62;99610.22;4995437;28;20074;-77
2023/06/30 00:35:28;;;;;;;5.10;2.53;;;;;;;20.28;74.26;99612.88;4996569;28;20109;-77
2023/06/30 00:37:53;;;;;;;8.27;4.07;;;;;;;20.10;74.00;99607.44;4996197;28;20038;-78
2023/06/30 00:40:18;;;;;;;6.87;3.87;;;;;;;20.26;73.80;99604.91;4995623;28;20311;-77
2023/06/30 00:42:44;;;;;;;9.20;5.25;;;;;;;20.26;73.01;99606.88;4996496;28;20030;-80
2023/06/30 00:45:09;;;;;;;9.17;4.83;;;;;;;20.29;72.86;99603.44;4996179;28;20027;-78
2023/06/30 00:47:35;;;;;;;11.18;5.13;;;;;;;20.15;73.25;99603.69;4996291;28;20263;-78
2023/06/30 00:50:00;;;;;;;7.13;3.92;;;;;;;19.92;73.07;99604.75;4995478;28;20034;-79
2023/06/30 00:52:26;;;;;;;7.55;3.85;;;;;;;19.90;73.60;99604.28;4995499;28;20558;-78
2023/06/30 00:54:51;;;;;;;6.47;3.67;;;;;;;19.73;74.05;99607.91;4996103;28;20026;-78
2023/06/30 00:57:16;;;;;;;6.50;2.63;;;;;;;19.75;73.42;99611.16;4995686;28;20022;-78
2023/06/30 00:59:42;;;;;;;5.40;2.37;;;;;;;19.71;71.28;99616.53;4995643;28;20769;-77
2023/06/30 01:02:16;;;;;;;2.72;1.15;;;;;;;19.84;69.48;99616.66;4995858;28;20256;-77
2023/06/30 01:05:04;;;;;;;4.65;2.00;;;;;;;19.78;69.10;99606.91;4996058;28;20036;-77
2023/06/30 01:07:45;;;;;;;3.33;1.67;;;;;;;19.63;69.77;99611.06;4995752;28;20081;-78
2023/06/30 01:10:22;;;;;;;5.65;2.13;;;;;;;19.58;69.58;99603.75;4995615;28;20046;-77
2023/06/30 01:12:48;;;;;;;6.38;1.70;;;;;;;19.57;71.00;99613.16;4995547;28;20523;-78
2023/06/30 01:15:14;;;;;;;4.07;1.77;;;;;;;19.52;71.28;99613.34;4996141;28;20119;-78
2023/06/30 01:17:46;;;;;;;2.88;1.50;;;;;;;19.53;70.97;99617.72;4997005;28;20423;-77
2023/06/30 01:20:14;;;;;;;3.08;1.77;;;;;;;19.65;71.32;99623.38;4995387;28;20616;-78
2023/06/30 01:23:02;;;;;;;4.50;2.10;;;;;;;19.69;71.68;99618.81;4995860;28;20037;-77
2023/06/30 01:25:29;;;;;;;3.83;1.58;;;;;;;19.62;72.23;99618.53;4991348;28;20022;-78
2023/06/30 01:27:56;;;;;;;3.72;1.60;;;;;;;19.59;72.62;99616.41;4995720;28;20061;-78
2023/06/30 01:30:23;;;;;;;11.38;3.08;;;;;;;19.70;71.86;99614.94;5002132;28;20038;-77
2023/06/30 01:32:54;;;;;;;3.13;1.88;;;;;;;19.75;71.46;99607.59;4995566;28;20039;-77
2023/06/30 01:35:20;;;;;;;9.57;2.35;;;;;;;19.64;72.13;99609.91;4995163;28;20105;-77
2023/06/30 01:37:45;;;;;;;7.00;2.03;;;;;;;19.59;72.87;99619.16;4995283;28;20113;-78
2023/06/30 01:40:11;;;;;;;3.50;1.83;;;;;;;19.50;73.06;99618.41;4993659;28;20026;-77
2023/06/30 01:42:37;;;;;;;6.78;2.33;;;;;;;19.40;73.57;99623.13;4995688;28;20575;-78
2023/06/30 01:45:05;;;;;;;5.30;2.25;;;;;;;19.48;73.75;99622.31;4992714;28;20045;-77
2023/06/30 01:47:31;;;;;;;4.10;1.73;;;;;;;19.48;73.06;99622.31;4995638;28;20023;-81
2023/06/30 01:49:57;;;;;;;6.40;2.47;;;;;;;19.62;72.81;99615.75;4995384;28;20391;-81
2023/06/30 01:52:23;;;;;;;6.38;2.78;;;;;;;19.61;73.44;99616.88;4995579;28;20077;-81
2023/06/30 01:54:48;;;;;;;6.60;2.40;;;;;;;19.54;73.39;99613.84;4995726;28;20058;-81
2023/06/30 01:57:13;;;;;;;6.60;2.20;;;;;;;19.50;72.98;99618.41;5001055;28;20268;-78
2023/06/30 01:59:38;;;;;;;5.50;2.60;;;;;;;19.46;73.89;99619.06;4994337;28;20279;-78
2023/06/30 02:02:04;;;;;;;4.37;2.67;;;;;;;19.45;73.09;99622.97;4993039;28;20336;-79
2023/06/30 02:04:29;;;;;;;5.50;2.80;;;;;;;19.45;73.97;99617.44;4992263;28;20015;-77
2023/06/30 02:06:55;;;;;;;5.03;2.30;;;;;;;19.48;73.47;99625.09;4991388;28;20084;-79
2023/06/30 02:09:20;;;;;;;7.32;2.70;;;;;;;19.56;72.57;99623.44;4993352;28;20032;-78
2023/06/30 02:11:46;;;;;;;6.88;3.03;;;;;;;19.51;73.05;99620.00;4993185;28;20027;-79
2023/06/30 02:14:11;;;;;;;9.15;3.28;;;;;;;19.39;73.33;99615.97;4992732;28;20049;-78
2023/06/30 02:16:36;;;;;;;6.77;3.60;;;;;;;19.42;72.99;99606.22;4993349;28;20038;-78
2023/06/30 02:19:01;;;;;;;8.45;3.00;;;;;;;19.40;73.46;99592.75;4994105;28;20099;-78
2023/06/30 02:21:27;;;;;;;6.43;3.37;;;;;;;19.35;74.02;99587.38;4994694;28;20464;-78
2023/06/30 02:23:52;;;;;;;8.93;4.03;;;;;;;19.25;74.28;99586.59;4994667;28;20248;-79
2023/06/30 02:26:17;;;;;;;8.52;3.85;;;;;;;18.90;75.12;99603.16;4994400;28;20030;-78
2023/06/30 02:28:43;;;;;;;6.87;3.40;;;;;;;19.15;74.76;99608.22;4994358;28;20030;-79
2023/06/30 02:31:08;;;;;;;7.95;4.30;;;;;;;19.10;75.11;99606.41;4994688;28;20029;-79
2023/06/30 02:33:33;;;;;;;10.00;4.00;;;;;;;19.24;74.65;99622.84;4994643;28;20089;-78
2023/06/30 02:35:58;;;;;;;8.60;4.37;;;;;;;19.22;74.91;99625.13;4994879;28;20026;-78
2023/06/30 02:38:23;;;;;;;10.90;6.23;;;;;;;19.17;74.75;99634.38;4993327;28;20026;-78
2023/06/30 02:40:49;;;;;;;13.33;4.77;;;;;;;19.19;74.58;99637.63;4994016;28;20034;-78
2023/06/30 02:43:14;;;;;;;7.18;4.22;;;;;;;19.30;74.60;99637.31;4994257;28;20029;-77
2023/06/30 02:45:39;;;;;;;8.30;4.30;;;;;;;19.23;74.36;99644.13;4994067;28;20488;-77
2023/06/30 02:48:05;;;;;;;9.77;4.20;;;;;;;19.17;74.07;99634.38;4995907;28;20256;-77
2023/06/30 02:50:31;;;;;;;12.10;3.35;;;;;;;19.09;74.42;99632.41;4994042;28;20061;-77
2023/06/30 02:52:58;;;;;;;11.02;4.47;;;;;;;18.79;75.03;99635.81;4993608;28;20046;-80
2023/06/30 02:55:23;;;;;;;8.68;4.10;;;;;;;18.95;74.57;99633.41;4994380;28;20022;-77
2023/06/30 02:57:49;;;;;;;6.93;3.67;;;;;;;19.02;74.12;99633.69;4994290;28;20037;-78
2023/06/30 03:00:15;;;;;;;6.47;4.25;;;;;;;19.04;74.33;99640.88;4993488;28;20014;-78
2023/06/30 03:02:40;;;;;;;7.45;3.88;;;;;;;18.88;75.19;99649.63;4993768;28;20030;-78
2023/06/30 03:05:06;;;;;;;7.40;3.80;;;;;;;19.00;75.65;99652.56;4993964;28;20037;-78
2023/06/30 03:07:32;;;;;;;6.90;4.13;;;;;;;19.19;74.97;99647.88;4994944;28;20260;-80
2023/06/30 03:09:57;;;;;;;8.07;5.28;;;;;;;19.27;74.62;99649.81;4999323;28;20502;-82
2023/06/30 03:12:23;;;;;;;11.50;5.00;;;;;;;19.17;74.71;99650.97;4994434;28;20050;-81
2023/06/30 03:14:48;;;;;;;10.30;5.23;;;;;;;19.20;74.85;99649.50;4994832;28;20264;-81
2023/06/30 03:17:13;;;;;;;13.17;5.27;;;;;;;19.19;73.79;99642.34;5001686;28;20531;-81
2023/06/30 03:19:38;;;;;;;12.53;4.53;;;;;;;19.27;73.16;99637.94;4995033;28;20030;-81
2023/06/30 03:22:04;;;;;;;14.50;5.47;;;;;;;19.21;73.47;99627.06;4994479;28;20026;-81
2023/06/30 03:24:29;;;;;;;11.77;4.82;;;;;;;19.17;73.91;99639.09;4994810;28;20260;-81
2023/06/30 03:26:54;;;;;;;13.63;4.80;;;;;;;19.22;72.83;99639.72;4994750;28;20378;-82
2023/06/30 03:29:19;;;;;;;10.17;5.17;;;;;;;18.96;72.82;99635.00;4994235;28;20022;-82
2023/06/30 03:31:45;;;;;;;18.40;4.00;;;;;;;18.86;73.80;99635.31;4994234;28;20723;-81
2023/06/30 03:34:11;;;;;;;9.83;3.40;;;;;;;18.83;73.82;99638.75;4994507;28;20030;-81
2023/06/30 03:36:36;;;;;;;13.95;4.47;;;;;;;18.96;73.82;99629.47;4994289;28;20264;-81
2023/06/30 03:39:01;;;;;;;9.37;4.77;;;;;;;19.02;72.70;99630.94;4993723;28;20121;-80
2023/06/30 03:41:27;;;;;;;9.90;4.45;;;;;;;18.94;73.47;99637.28;4994269;28;20076;-80
2023/06/30 03:43:52;;;;;;;7.17;3.67;;;;;;;18.96;73.66;99636.94;4994542;28;20431;-81
2023/06/30 03:46:17;;;;;;;10.00;5.00;;;;;;;19.00;73.09;99635.16;4994226;28;20260;-82
2023/06/30 03:48:42;;;;;;;8.43;4.07;;;;;;;19.02;73.29;99647.50;4994131;28;20264;-81
2023/06/30 03:51:08;;;;;;;15.63;4.77;;;;;;;19.08;72.54;99637.09;4993708;28;20284;-81
2023/06/30 03:53:33;;;;;;;10.77;4.27;;;;;;;19.09;73.03;99632.41;4994105;28;20722;-81
2023/06/30 03:55:58;;;;;;;9.40;4.53;;;;;;;18.95;72.55;99624.28;4994230;28;20256;-81
2023/06/30 03:58:23;;;;;;;16.35;5.38;;;;;;;18.84;73.48;99632.91;4993716;28;20768;-81
2023/06/30 04:00:49;;;;;;;9.90;3.50;;;;;;;18.84;74.10;99626.53;4993753;28;20023;-81
2023/06/30 04:03:14;;;;;;;11.40;4.10;;;;;;;18.91;74.36;99629.66;4993012;28;20037;-82
2023/06/30 04:05:39;;;;;;;8.23;3.97;;;;;;;19.01;73.67;99626.56;4992360;28;20275;-80
2023/06/30 04:08:05;;;;;;;14.35;5.90;;;;;;;19.06;73.16;99625.56;4992338;28;20031;-77
2023/06/30 04:10:30;;;;;;;19.67;5.40;;;;;;;19.06;73.19;99630.31;4992509;28;20081;-79
2023/06/30 04:12:55;;;;;;;11.80;5.37;;;;;;;18.94;73.19;99619.88;4992164;28;20041;-80
2023/06/30 04:15:21;;;;;;;9.50;4.80;;;;;;;18.88;73.56;99619.25;4992557;28;20038;-80
2023/06/30 04:17:46;;;;;;;8.32;3.78;;;;;;;18.89;73.26;99618.13;4993540;28;20027;-82
2023/06/30 04:20:14;;;;;;;8.27;4.57;;;;;;;18.68;73.46;99624.28;4992834;28;20077;-81
2023/06/30 04:22:40;;;;;;;8.80;3.67;;;;;;;18.78;74.34;99628.66;4993591;28;20027;-82
2023/06/30 04:25:06;;;;;;;17.90;6.20;;;;;;;18.90;73.54;99631.59;4993452;28;20045;-81
2023/06/30 04:27:31;;;;;;;12.23;4.20;;;;;;;18.98;72.96;99632.72;4998993;28;20030;-81
2023/06/30 04:29:57;;;;;;;10.87;4.30;;;;;;;18.97;73.37;99628.34;4996293;28;20034;-81
2023/06/30 04:32:22;;;;;;;11.43;4.95;;;;;;;19.06;72.66;99627.53;4993338;28;20327;-81
2023/06/30 04:34:47;;;;;;;9.23;4.53;;;;;;;19.00;71.90;99622.16;4993624;28;20037;-81
2023/06/30 04:37:13;;;;;;;9.40;3.80;;;;;;;18.96;72.25;99625.91;4993167;28;20373;-81
2023/06/30 04:39:38;;;;;;;12.18;5.38;;;;;;;18.86;73.23;99624.28;4993142;28;20300;-80
2023/06/30 04:42:04;;;;;;;9.63;5.13;;;;;;;18.96;72.86;99634.19;4992381;28;20022;-82
2023/06/30 04:44:30;;;;;;;8.07;3.83;;;;;;;18.99;72.04;99617.78;4993582;28;20080;-82
2023/06/30 04:46:56;;;;;;;8.52;4.75;;;;;;;19.04;71.77;99618.78;4994054;28;20653;-81
2023/06/30 04:49:22;;;;;;;14.40;4.10;;;;;;;19.00;71.71;99627.69;4993221;28;20034;-81
2023/06/30 04:51:47;;;;;;;9.23;4.20;;;;;;;19.00;71.85;99641.50;4991693;28;20061;-81
2023/06/30 04:54:12;;;;;;;14.25;4.97;;;;;;;18.98;71.85;99648.47;4997280;28;20048;-81
2023/06/30 04:56:37;;;;;;;11.25;4.22;;;;;;;18.91;72.25;99651.75;4993401;28;20606;-80
2023/06/30 04:59:04;;;;;;;8.73;3.60;;;;;;;18.89;71.26;99645.75;4992818;28;21146;-82
2023/06/30 05:01:31;;;;;;;9.18;3.20;;;;;;;18.88;71.97;99650.44;4993227;28;20462;-81
2023/06/30 05:03:57;;;;;;;8.98;3.83;;;;;;;18.84;72.28;99654.16;4993034;28;20058;-81
2023/06/30 05:06:22;;;;;;;14.90;4.17;;;;;;;18.94;72.09;99656.63;4992927;28;20034;-81
2023/06/30 05:08:47;;;;;;;9.83;3.23;;;;;;;19.02;70.86;99658.56;4992742;28;20334;-81
2023/06/30 05:11:12;;;;;;;6.90;2.73;;;;;;;19.03;70.33;99656.63;4993173;28;20030;-81
2023/06/30 05:13:38;;;;;;;5.77;2.30;;;;;;;18.84;70.90;99659.69;4993349;28;21466;-82
2023/06/30 05:16:03;;;;;;;8.80;2.93;;;;;;;18.95;70.97;99669.31;4998526;28;20018;-81
2023/06/30 05:18:28;;;;;;;7.20;3.30;;;;;;;18.88;71.83;99655.97;4996105;28;20034;-81
2023/06/30 05:20:55;;;;;;;10.43;3.40;;;;;;;18.83;72.65;99663.59;4996554;28;20033;-81
2023/06/30 05:23:20;;;;;;;7.07;2.83;;;;;;;18.75;71.96;99656.94;4994588;28;20046;-83
2023/06/30 05:25:45;;;;;;;13.40;4.27;;;;;;;18.96;70.88;99648.00;4993249;28;20030;-77
2023/06/30 05:28:10;;;;;;;9.23;3.27;;;;;;;18.97;70.40;99642.16;4992197;28;20648;-79
2023/06/30 05:30:36;;;;;;;7.30;2.83;;;;;;;18.91;69.91;99637.94;4992974;28;20256;-78
2023/06/30 05:33:01;;;;;;;6.05;3.00;;;;;;;18.84;70.80;99634.84;4991879;28;20026;-80
2023/06/30 05:35:26;;;;;;;6.13;2.80;;;;;;;18.85;71.10;99642.00;4993381;28;20031;-80
2023/06/30 05:37:51;;;;;;;16.13;4.57;;;;;;;18.94;69.71;99634.50;4993559;28;20534;-79
2023/06/30 05:40:17;;;;;;;9.30;2.53;;;;;;;19.02;69.33;99641.16;4993434;28;20370;-78
2023/06/30 05:42:42;;;;;;;11.95;3.63;;;;;;;18.94;68.20;99648.31;4993580;28;20268;-79
2023/06/30 05:45:08;;;;;;;8.93;3.72;;;;;;;18.87;67.96;99648.84;4992792;28;20451;-79
2023/06/30 05:47:33;;;;;;;7.05;2.72;;;;;;;18.88;68.15;99644.09;4993132;28;20439;-79
2023/06/30 05:49:58;;;;;;;20.90;2.80;;;;;;;18.77;68.02;99649.94;4988897;28;20038;-75
2023/06/30 05:52:24;;;;;;;7.23;2.17;;;;;;;18.83;68.75;99661.66;4986430;28;20279;-75
2023/06/30 05:54:50;;;;;;;7.82;2.20;;;;;;;18.92;68.04;99656.13;4985837;28;20307;-76
2023/06/30 05:57:15;;;;;;;7.32;2.80;;;;;;;18.87;68.01;99662.63;4985004;28;20093;-76
2023/06/30 05:59:41;;;;;;;9.80;2.80;;;;;;;19.06;67.14;99661.47;4986261;28;20042;-75
2023/06/30 06:02:06;;;;;;;13.80;3.63;;;;;;;19.03;68.48;99667.69;4986184;28;20107;-74
2023/06/30 06:04:31;;;;;;;5.25;2.10;;;;;;;19.20;67.35;99664.09;4984992;28;20049;-76
2023/06/30 06:07:01;;;;;;;9.67;2.73;;;;;;;19.32;65.98;99668.19;4985974;28;20041;-76
2023/06/30 06:09:27;;;;;;;7.88;3.00;;;;;;;19.41;65.35;99657.09;4985479;28;20046;-75
2023/06/30 06:11:52;;;;;;;7.70;2.63;;;;;;;19.41;65.50;99660.69;4986056;28;20030;-76
2023/06/30 06:14:19;;;;;;;10.95;3.30;;;;;;;19.38;66.13;99663.28;4984830;28;20494;-75
2023/06/30 06:16:45;;;;;;;7.25;1.77;;;;;;;19.38;66.32;99672.41;4986010;28;20096;-76
2023/06/30 06:19:11;;;;;;;10.30;2.38;;;;;;;19.28;66.21;99669.97;4985743;28;20043;-74
2023/06/30 06:21:36;;;;;;;9.10;2.60;;;;;;;19.15;65.77;99671.75;4985826;28;20059;-76
2023/06/30 06:24:02;;;;;;;10.03;3.03;;;;;;;19.04;66.60;99682.31;4985588;28;20531;-75
2023/06/30 06:26:27;;;;;;;11.10;2.47;;;;;;;19.11;66.86;99680.69;4985130;28;20031;-73
2023/06/30 06:28:53;;;;;;;9.53;2.57;;;;;;;19.17;65.84;99672.25;4985048;28;20121;-76
2023/06/30 06:31:18;;;;;;;12.87;3.70;;;;;;;19.08;66.13;99670.25;4985640;28;20053;-77
2023/06/30 06:33:43;;;;;;;5.37;2.23;;;;;;;19.23;65.94;99665.41;4985770;28;20450;-73
2023/06/30 06:36:10;;;;;;;13.27;3.77;;;;;;;19.30;64.56;99664.94;4985931;28;20291;-73
2023/06/30 06:38:35;;;;;;;8.38;3.22;;;;;;;19.10;64.43;99668.00;4986055;28;20618;-77
2023/06/30 06:41:01;;;;;;;12.98;4.57;;;;;;;19.22;65.05;99675.66;4986197;28;20035;-75
2023/06/30 06:43:27;;;;;;;11.33;2.20;;;;;;;18.97;64.26;99675.31;4985192;28;20821;-75
2023/06/30 06:45:53;;;;;;;8.07;2.30;;;;;;;19.05;65.44;99675.63;4985904;28;20264;-75
2023/06/30 06:48:18;;;;;;;6.90;2.80;;;;;;;19.22;64.32;99672.88;4985666;28;20617;-75
2023/06/30 06:50:44;;;;;;;8.57;3.58;;;;;;;19.27;62.96;99679.38;4985400;28;20411;-75
2023/06/30 06:53:09;;;;;;;5.57;2.25;;;;;;;19.32;61.76;99682.00;4984754;28;20077;-75
2023/06/30 06:55:35;;;;;;;6.20;2.28;;;;;;;19.21;63.06;99668.50;4985517;28;20423;-75
2023/06/30 06:58:01;;;;;;;10.27;2.45;;;;;;;19.29;63.45;99677.13;4983957;28;20037;-76
2023/06/30 07:00:26;;;;;;;8.30;3.20;;;;;;;19.14;63.15;99662.66;4984953;28;20026;-74
2023/06/30 07:02:52;;;;;;;11.20;3.75;;;;;;;18.97;62.71;99669.78;4985273;28;20046;-74
2023/06/30 07:05:18;;;;;;;16.77;3.95;;;;;;;19.10;63.36;99670.75;4984955;28;20034;-72
2023/06/30 07:07:43;;;;;;;7.25;2.13;;;;;;;19.39;63.12;99667.66;4988097;28;20081;-74
2023/06/30 07:10:09;;;;;;;9.45;3.30;;;;;;;19.55;62.58;99676.25;4984420;28;20129;-76
2023/06/30 07:12:34;;;;;;;9.48;2.20;;;;;;;19.47;61.02;99675.13;4985032;28;20117;-75
2023/06/30 07:14:59;;;;;;;7.43;3.08;;;;;;;19.40;61.98;99674.84;4984438;28;20038;-75
2023/06/30 07:17:24;;;;;;;5.27;2.17;;;;;;;19.47;62.29;99681.50;4985438;28;20046;-81
2023/06/30 07:19:50;;;;;;;6.13;2.23;;;;;;;19.58;61.71;99689.44;4985241;28;20892;-76
2023/06/30 07:22:15;;;;;;;5.60;3.00;;;;;;;19.60;62.84;99684.41;4983713;28;20264;-75
2023/06/30 07:24:40;;;;;;;9.68;3.97;;;;;;;19.59;61.88;99688.28;4985377;28;20327;-77
2023/06/30 07:27:06;;;;;;;45.40;42.70;;;;;;;19.63;59.81;99682.94;4983364;28;20650;-77
2023/06/30 07:29:31;;;;;;;555.50;522.15;;;;;;;19.63;57.69;99678.19;4983622;28;20045;-77
2023/06/30 07:31:56;;;;;;;9.83;8.93;;;;;;;19.56;56.90;99680.66;4983834;28;20026;-77
2023/06/30 07:34:23;;;;;;;195.35;185.50;;;;;;;19.64;55.19;99679.03;4983529;28;20078;-75
2023/06/30 07:36:50;;;;;;;575.95;541.03;;;;;;;19.45;54.74;99678.25;4983373;28;20118;-75
2023/06/30 07:39:15;;;;;;;388.05;370.00;;;;;;;19.51;56.39;99683.59;4982563;28;20068;-75
2023/06/30 07:41:40;;;;;;;348.13;332.40;;;;;;;19.60;57.15;99681.63;4983866;28;20478;-75
2023/06/30 07:44:05;;;;;;;407.13;387.33;;;;;;;19.50;55.24;99687.50;4983982;28;20999;-75
2023/06/30 07:46:31;;;;;;;439.00;416.25;;;;;;;19.54;56.66;99691.25;4983874;28;20283;-77
2023/06/30 07:48:56;;;;;;;395.33;374.73;;;;;;;19.53;56.25;99686.84;4984314;28;20457;-76
2023/06/30 07:51:22;;;;;;;545.30;511.90;;;;;;;19.60;56.14;99690.75;4985033;28;20054;-77
2023/06/30 07:53:48;;;;;;;406.08;385.15;;;;;;;19.69;55.87;99693.47;4985275;28;20088;-76
2023/06/30 07:56:13;;;;;;;363.65;343.95;;;;;;;19.66;56.75;99683.09;4985052;28;20038;-77
2023/06/30 07:58:38;;;;;;;143.00;137.40;;;;;;;19.47;58.34;99688.97;4984322;28;20034;-76
2023/06/30 08:01:03;;;;;;;255.30;244.43;;;;;;;19.52;58.97;99685.22;4984989;28;20375;-78
2023/06/30 08:03:29;;;;;;;403.38;383.65;;;;;;;19.73;57.59;99698.38;4985063;28;20030;-77
2023/06/30 08:05:56;;;;;;;487.13;458.05;;;;;;;19.75;56.19;99690.56;4984736;28;20070;-77
2023/06/30 08:08:22;;;;;;;647.65;607.28;;;;;;;19.85;56.78;99694.91;4984519;28;20046;-77
2023/06/30 08:10:47;;;;;;;330.23;315.05;;;;;;;19.91;56.51;99694.38;4985373;28;20045;-76
2023/06/30 08:13:12;;;;;;;475.67;448.40;;;;;;;20.14;57.46;99691.41;4984287;28;20038;-77
2023/06/30 08:15:37;;;;;;;299.30;286.50;;;;;;;20.27;56.70;99691.53;4982393;28;20681;-77
2023/06/30 08:18:03;;;;;;;412.83;392.70;;;;;;;20.46;56.00;99693.09;4983426;28;20295;-78
2023/06/30 08:20:28;;;;;;;459.25;434.90;;;;;;;20.51;55.85;99698.41;4983250;28;20381;-78
2023/06/30 08:22:54;;;;;;;465.55;441.52;;;;;;;20.32;56.59;99701.63;4983953;28;20042;-77
2023/06/30 08:25:24;;;;;;;436.92;412.25;;;;;;;20.24;56.08;99712.38;4984215;28;20048;-78
2023/06/30 08:27:49;;;;;;;351.55;332.55;;;;;;;20.15;56.25;99711.59;4985184;28;20468;-76
2023/06/30 08:30:15;;;;;;;159.60;152.67;;;;;;;20.11;55.01;99705.94;4984368;28;20041;-76
2023/06/30 08:32:40;;;;;;;307.02;291.48;;;;;;;20.05;55.41;99710.81;4984983;28;20260;-77
2023/06/30 08:35:06;;;;;;;370.80;351.48;;;;;;;20.28;54.74;99712.50;4985146;28;20076;-76
2023/06/30 08:37:31;;;;;;;422.45;399.20;;;;;;;20.50;52.75;99702.34;4984875;28;20653;-77
2023/06/30 08:39:56;;;;;;;427.77;402.37;;;;;;;20.49;51.27;99706.25;4984041;28;20790;-77
2023/06/30 08:42:24;;;;;;;245.57;232.23;;;;;;;20.65;51.59;99699.00;4984427;28;20252;-77
2023/06/30 08:44:52;;;;;;;213.20;203.98;;;;;;;20.70;53.18;99713.78;4984583;28;20268;-76
2023/06/30 08:47:19;;;;;;;131.10;124.97;;;;;;;20.77;53.54;99705.75;4984809;28;20121;-77
2023/06/30 08:49:47;;;;;;;134.55;129.07;;;;;;;20.67;51.28;99700.59;4985580;28;20034;-78
2023/06/30 08:52:14;;;;;;;236.23;223.30;;;;;;;20.51;51.93;99690.09;4989046;28;20050;-77
2023/06/30 08:54:40;;;;;;;278.25;263.73;;;;;;;20.50;52.80;99688.50;4988694;28;20046;-77
2023/06/30 08:57:05;;;;;;;238.20;228.18;;;;;;;20.67;53.06;99692.28;4988908;28;20061;-75
2023/06/30 08:59:31;;;;;;;241.38;231.15;;;;;;;20.92;51.94;99687.72;4988156;28;20036;-76
2023/06/30 09:01:57;;;;;;;101.47;96.83;;;;;;;21.13;50.77;99683.38;4988823;28;20049;-75
2023/06/30 09:04:22;;;;;;;77.70;74.10;;;;;;;21.04;51.58;99675.94;4988072;28;20260;-76
2023/06/30 09:06:49;;;;;;;40.47;37.63;;;;;;;21.05;50.75;99674.78;4988386;28;20528;-76
2023/06/30 09:09:27;;;;;;;8.10;4.68;;;;;;;20.84;49.21;99677.53;4988584;28;20030;-75
2023/06/30 09:11:53;;;;;;;13.45;7.25;;;;;;;21.02;50.80;99677.41;4988173;28;20038;-76
2023/06/30 09:14:21;;;;;;;9.95;5.32;;;;;;;21.21;51.17;99683.28;4987598;28;20044;-74
2023/06/30 09:16:47;;;;;;;4.28;2.45;;;;;;;21.07;50.39;99678.03;4987054;28;20038;-75
2023/06/30 09:19:15;;;;;;;3.17;2.50;;;;;;;21.08;51.43;99676.88;4986823;28;20069;-74
2023/06/30 09:21:40;;;;;;;22.42;20.70;;;;;;;21.25;50.57;99669.56;4986726;28;20579;-75
2023/06/30 09:24:05;;;;;;;9.63;7.65;;;;;;;21.34;50.40;99670.28;4987434;28;20157;-75
2023/06/30 09:26:32;;;;;;;4.90;2.15;;;;;;;21.31;49.40;99665.44;4986797;28;20049;-75
2023/06/30 09:28:57;;;;;;;6.38;2.92;;;;;;;21.33;50.11;99660.38;4986631;28;20066;-74
2023/06/30 09:31:30;;;;;;;5.45;2.00;;;;;;;21.46;48.97;99663.97;4987002;28;20072;-74
2023/06/30 09:34:07;;;;;;;5.13;1.55;;;;;;;21.76;49.12;99665.81;4986873;28;20113;-75
2023/06/30 09:36:34;;;;;;;4.30;1.83;;;;;;;21.91;47.39;99677.41;4986056;28;20504;-75
2023/06/30 09:38:59;;;;;;;5.65;1.92;;;;;;;21.75;47.19;99664.19;4986490;28;20515;-76
2023/06/30 09:41:26;;;;;;;4.78;1.90;;;;;;;21.85;46.32;99662.13;4986247;28;20125;-77
2023/06/30 09:43:58;;;;;;;3.78;1.90;;;;;;;21.91;46.56;99663.53;4986388;28;20554;-77
2023/06/30 09:46:23;;;;;;;7.85;2.45;;;;;;;21.81;47.96;99667.53;4986729;28;20129;-76
2023/06/30 09:48:53;;;;;;;6.07;1.75;;;;;;;21.76;45.48;99674.13;4986110;28;20996;-77
2023/06/30 09:51:22;;;;;;;4.32;1.38;;;;;;;21.72;44.88;99664.06;4986238;28;20050;-76
2023/06/30 09:53:50;;;;;;;3.70;2.03;;;;;;;21.88;44.97;99667.81;4986136;28;20049;-78
2023/06/30 09:56:22;;;;;;;3.47;1.73;;;;;;;21.74;44.66;99662.56;4984874;28;20118;-76
2023/06/30 09:58:48;;;;;;;2.15;1.25;;;;;;;21.60;44.79;99673.16;4985650;28;20050;-75
2023/06/30 10:01:19;;;;;;;7.28;1.48;;;;;;;21.83;43.44;99658.88;4985479;28;21181;-82
2023/06/30 10:03:48;;;;;;;5.45;1.65;;;;;;;22.06;45.39;99662.06;4986651;28;20037;-76
2023/06/30 10:06:17;;;;;;;3.78;1.33;;;;;;;22.11;44.59;99664.59;4985658;28;20027;-76
2023/06/30 10:08:45;;;;;;;5.18;2.08;;;;;;;22.27;44.51;99661.94;4985548;28;20096;-76
2023/06/30 10:11:10;;;;;;;3.10;1.60;;;;;;;22.34;44.85;99649.44;4985407;28;20595;-76
2023/06/30 10:13:38;;;;;;;8.23;1.53;;;;;;;22.44;44.64;99654.53;4986013;28;20030;-75
2023/06/30 10:16:05;;;;;;;5.03;1.50;;;;;;;21.95;44.53;99656.13;4985395;28;20272;-75
2023/06/30 10:18:35;;;;;;;15.57;3.78;;;;;;;21.89;45.47;99655.56;4985088;28;20034;-76
2023/06/30 10:21:01;;;;;;;4.47;1.48;;;;;;;22.37;45.41;99659.88;4985707;28;20172;-75
2023/06/30 10:23:27;;;;;;;8.52;2.25;;;;;;;22.38;44.70;99655.91;4986308;28;20125;-78
2023/06/30 10:25:54;;;;;;;3.95;1.50;;;;;;;22.39;43.31;99655.56;4986562;28;20038;-75
2023/06/30 10:28:20;;;;;;;3.28;1.48;;;;;;;22.60;42.25;99651.84;4985271;28;20679;-75
2023/06/30 10:30:49;;;;;;;1.92;1.00;;;;;;;22.77;42.07;99649.16;4985564;28;20490;-75
2023/06/30 10:33:14;;;;;;;1.85;1.15;;;;;;;22.92;43.72;99656.78;4985875;28;20036;-76
2023/06/30 10:35:40;;;;;;;8.10;1.77;;;;;;;22.80;42.67;99652.06;4986595;28;20443;-75
2023/06/30 10:38:06;;;;;;;3.13;1.33;;;;;;;22.67;42.86;99651.28;4985203;28;20042;-75
2023/06/30 10:40:32;;;;;;;4.53;2.03;;;;;;;22.51;42.91;99660.31;4985702;28;20034;-75
2023/06/30 10:42:58;;;;;;;6.30;2.20;;;;;;;22.68;42.05;99647.34;4985753;28;20039;-75
2023/06/30 10:45:30;;;;;;;2.55;1.42;;;;;;;22.85;41.22;99640.72;4985585;28;20030;-75
2023/06/30 10:47:56;;;;;;;7.57;1.35;;;;;;;22.96;43.14;99640.22;4985437;28;20050;-75
2023/06/30 10:50:22;;;;;;;3.67;2.15;;;;;;;22.97;43.41;99641.81;4985396;28;20112;-76
2023/06/30 10:52:52;;;;;;;3.45;1.20;;;;;;;22.45;41.48;99639.50;4985136;28;20065;-76
2023/06/30 10:55:22;;;;;;;4.10;1.60;;;;;;;22.55;43.47;99637.38;4986038;28;20030;-76
2023/06/30 10:57:50;;;;;;;3.90;1.13;;;;;;;22.49;43.15;99639.59;4985149;28;20407;-75
2023/06/30 11:00:16;;;;;;;2.67;1.00;;;;;;;22.89;42.63;99621.34;4984486;28;20534;-76
2023/06/30 11:02:47;;;;;;;3.10;1.42;;;;;;;23.04;41.50;99630.13;4985413;28;20061;-76
2023/06/30 11:05:30;;;;;;;4.20;1.27;;;;;;;22.84;41.51;99627.19;4985237;28;20072;-76
2023/06/30 11:08:01;;;;;;;2.92;1.77;;;;;;;22.85;42.00;99614.88;4985249;28;20100;-76
2023/06/30 11:10:32;;;;;;;3.22;1.30;;;;;;;23.03;42.53;99614.59;4985170;28;20493;-76
2023/06/30 11:12:59;;;;;;;8.32;1.67;;;;;;;23.29;41.65;99619.69;4985223;28;20559;-77
2023/06/30 11:15:33;;;;;;;4.10;1.60;;;;;;;22.92;42.42;99615.09;4985747;28;20042;-75
2023/06/30 11:18:00;;;;;;;1.90;0.90;;;;;;;23.16;42.11;99610.59;4984406;28;20073;-76
2023/06/30 11:20:31;;;;;;;3.78;1.48;;;;;;;23.14;41.73;99609.34;4984750;28;20044;-76
2023/06/30 11:23:02;;;;;;;3.67;1.27;;;;;;;23.35;41.72;99625.00;4984932;28;20439;-76